Terminal Aerodrome Forecast
Issued by NWS Grand Forks, ND

Home | Current Version | Previous Version | Text Only | Print | Product List | Glossary On
Versions: 1 2 3 4 5 6 7 8 9 10 11 12 13 14 15 16 17
000
FTUS43 KFGF 112337
TAFGFK
TAF
KGFK 112337Z 1200/1224 36012KT P6SM SKC
     FM120200 33006KT P6SM FEW130
     FM122100 17007KT P6SM BKN035
     FM122200 16006KT P6SM BKN120=

USA.gov is the U.S. government's official web portal to all federal, state and local government web resources and services.